createdAt,value
2018-06-21T00:01:19.112Z,67.06
2018-06-21T00:03:48.256Z,67.76
2018-06-21T00:06:17.181Z,68.29
2018-06-21T00:08:46.335Z,69.17
2018-06-21T00:11:15.500Z,69.17
2018-06-21T00:13:44.656Z,69.15
2018-06-21T00:16:13.806Z,69.15
2018-06-21T00:18:42.960Z,69.27
2018-06-21T00:21:12.119Z,68.97
2018-06-21T00:23:41.267Z,69.43
2018-06-21T00:26:10.412Z,69.66
2018-06-21T00:28:39.561Z,70.10
2018-06-21T00:31:08.903Z,70.14
2018-06-21T00:33:38.121Z,69.63
2018-06-21T00:36:07.294Z,69.62
2018-06-21T00:38:36.444Z,69.39
2018-06-21T00:41:05.626Z,68.83
2018-06-21T00:43:34.769Z,70.07
2018-06-21T00:46:03.929Z,71.13
2018-06-21T00:48:33.091Z,69.95
2018-06-21T00:51:02.246Z,70.78
2018-06-21T00:53:31.403Z,70.16
2018-06-21T00:56:15.370Z,69.89
2018-06-21T00:58:45.235Z,69.61
2018-06-21T01:01:15.263Z,70.46
2018-06-21T01:03:44.582Z,69.93
2018-06-21T01:06:14.136Z,70.02
2018-06-21T01:08:43.379Z,70.01
2018-06-21T01:11:12.540Z,68.77
2018-06-21T01:13:41.695Z,68.50
2018-06-21T01:16:10.853Z,69.22
2018-06-21T01:18:40.005Z,68.88
2018-06-21T01:21:09.327Z,69.51
2018-06-21T01:23:38.471Z,69.76
2018-06-21T01:26:07.636Z,69.68
2018-06-21T01:28:36.791Z,70.27
2018-06-21T01:31:05.952Z,70.03
2018-06-21T01:33:35.104Z,70.60
2018-06-21T01:36:04.265Z,71.05
2018-06-21T01:38:33.424Z,70.88
2018-06-21T01:41:02.584Z,69.98
2018-06-21T01:43:31.742Z,70.95
2018-06-21T01:46:00.884Z,70.93
2018-06-21T01:48:30.039Z,71.27
2018-06-21T01:50:59.184Z,71.13
2018-06-21T01:53:28.348Z,71.00
2018-06-21T01:55:57.499Z,71.37
2018-06-21T01:58:26.662Z,71.15
2018-06-21T02:00:55.819Z,71.53
2018-06-21T02:03:24.970Z,71.69
2018-06-21T02:05:54.117Z,71.37
2018-06-21T02:08:23.275Z,70.99
2018-06-21T02:10:52.465Z,71.05
2018-06-21T02:13:21.616Z,72.01
2018-06-21T02:15:50.764Z,72.32
2018-06-21T02:18:19.919Z,71.79
2018-06-21T02:20:49.060Z,71.80
2018-06-21T02:23:18.579Z,71.91
2018-06-21T02:25:47.728Z,72.23
2018-06-21T02:28:16.884Z,72.28
2018-06-21T02:30:46.041Z,72.38
2018-06-21T02:33:15.183Z,73.27
2018-06-21T02:35:44.363Z,73.39
2018-06-21T02:38:13.524Z,73.74
2018-06-21T02:40:42.685Z,73.83
2018-06-21T02:43:11.836Z,73.75
2018-06-21T02:45:41.013Z,73.85
2018-06-21T02:48:10.180Z,73.40
2018-06-21T02:50:39.338Z,74.86
2018-06-21T02:53:08.493Z,74.60
2018-06-21T02:55:37.643Z,74.41
2018-06-21T02:58:06.547Z,74.70
2018-06-21T03:00:35.764Z,73.72
2018-06-21T03:03:04.899Z,74.17
2018-06-21T03:05:34.096Z,74.11
2018-06-21T03:08:03.408Z,73.18
2018-06-21T03:10:32.553Z,74.08
2018-06-21T03:13:01.708Z,74.72
2018-06-21T03:15:30.627Z,74.72
2018-06-21T03:17:59.781Z,74.55
2018-06-21T03:20:28.934Z,74.11
2018-06-21T03:22:58.092Z,74.64
2018-06-21T03:25:27.244Z,75.02
2018-06-21T03:27:56.408Z,75.04
2018-06-21T03:30:25.574Z,75.95
2018-06-21T03:32:54.751Z,75.95
2018-06-21T03:35:23.917Z,74.97
2018-06-21T03:37:53.059Z,74.48
2018-06-21T03:40:22.221Z,73.19
2018-06-21T03:42:51.383Z,72.76
2018-06-21T03:45:20.536Z,72.33
2018-06-21T03:47:49.693Z,71.12
2018-06-21T03:50:18.843Z,71.91
2018-06-21T03:52:47.996Z,73.44
2018-06-21T03:55:17.155Z,73.32
2018-06-21T03:57:46.312Z,73.09
2018-06-21T04:00:15.451Z,72.97
2018-06-21T04:02:44.599Z,72.41
2018-06-21T04:05:13.751Z,71.33
2018-06-21T04:07:42.907Z,72.42
2018-06-21T04:10:12.047Z,73.04
2018-06-21T04:12:41.199Z,73.01
2018-06-21T04:15:10.349Z,71.25
2018-06-21T04:17:39.531Z,71.25
2018-06-21T04:20:08.680Z,70.80
2018-06-21T04:22:37.826Z,70.11
2018-06-21T04:25:06.983Z,69.92
2018-06-21T04:27:36.152Z,68.73
2018-06-21T04:30:05.635Z,70.22
2018-06-21T04:32:34.771Z,68.43
2018-06-21T04:35:03.940Z,67.55
2018-06-21T04:37:33.086Z,67.48
2018-06-21T04:40:02.237Z,67.49
2018-06-21T04:42:31.381Z,66.05
2018-06-21T04:45:00.539Z,65.55
2018-06-21T04:47:29.678Z,65.37
2018-06-21T04:49:58.827Z,65.93
2018-06-21T04:52:27.987Z,65.65
2018-06-21T04:54:57.135Z,65.04
2018-06-21T04:57:26.286Z,64.59
2018-06-21T04:59:55.437Z,65.10
2018-06-21T05:02:24.588Z,65.52
2018-06-21T05:04:53.752Z,65.31
2018-06-21T05:07:22.911Z,64.97
2018-06-21T05:09:52.077Z,65.62
2018-06-21T05:12:22.154Z,65.73
2018-06-21T05:14:53.015Z,64.92
2018-06-21T05:17:22.156Z,64.55
2018-06-21T05:19:51.305Z,65.59
2018-06-21T05:22:20.462Z,65.32
2018-06-21T05:24:49.612Z,66.54
2018-06-21T05:27:18.770Z,66.84
2018-06-21T05:29:47.921Z,66.43
2018-06-21T05:32:17.076Z,67.04
2018-06-21T05:34:46.223Z,66.71
2018-06-21T05:37:15.377Z,66.24
2018-06-21T05:39:44.517Z,65.52
2018-06-21T05:42:13.671Z,65.87
2018-06-21T05:44:42.816Z,65.75
2018-06-21T05:47:12.172Z,66.31
2018-06-21T05:49:41.086Z,67.30
2018-06-21T05:52:10.340Z,67.04
2018-06-21T05:54:39.523Z,66.85
2018-06-21T05:57:08.686Z,66.32
2018-06-21T05:59:41.235Z,66.55
2018-06-21T06:02:10.839Z,66.63
2018-06-21T06:04:40.481Z,65.73
2018-06-21T06:07:10.142Z,65.66
2018-06-21T06:09:40.870Z,65.29
2018-06-21T06:12:10.229Z,65.62
2018-06-21T06:14:39.925Z,65.19
2018-06-21T06:17:10.360Z,65.00
2018-06-21T06:19:40.045Z,64.75
2018-06-21T06:22:09.712Z,64.88
2018-06-21T06:24:39.152Z,63.62
2018-06-21T06:27:09.401Z,64.17
2018-06-21T06:29:39.046Z,64.37
2018-06-21T06:32:08.589Z,64.49
2018-06-21T06:34:38.341Z,63.29
2018-06-21T06:37:07.998Z,63.32
2018-06-21T06:39:37.698Z,63.27
2018-06-21T06:42:07.044Z,63.03
2018-06-21T06:44:36.643Z,62.41
2018-06-21T06:47:07.334Z,61.68
2018-06-21T06:49:37.496Z,61.43
2018-06-21T06:52:26.383Z,60.62
2018-06-21T06:55:33.034Z,60.10
2018-06-21T06:58:07.957Z,60.61
2018-06-21T07:00:37.625Z,60.25
2018-06-21T07:03:09.021Z,60.10
2018-06-21T07:05:38.674Z,59.00
2018-06-21T07:08:09.073Z,58.94
2018-06-21T07:10:39.456Z,58.91
2018-06-21T07:13:09.291Z,58.04
2018-06-21T07:15:42.373Z,57.28
2018-06-21T07:18:15.318Z,57.05
2018-06-21T07:30:44.199Z,57.09
2018-06-21T07:33:27.631Z,58.69
2018-06-21T07:36:44.980Z,58.36
2018-06-21T07:39:18.770Z,59.71
2018-06-21T07:41:48.447Z,59.52
2018-06-21T07:44:18.136Z,59.24
2018-06-21T07:46:57.610Z,59.50
2018-06-21T07:57:36.138Z,59.48
2018-06-21T08:00:58.657Z,57.03
2018-06-21T08:20:00.451Z,57.08
2018-06-21T08:40:10.360Z,54.61
2018-06-21T08:42:40.768Z,55.89
2018-06-21T08:45:14.423Z,55.36
2018-06-21T08:47:54.500Z,55.02
2018-06-21T09:44:34.251Z,42.68
2018-06-21T09:47:51.756Z,40.87
2018-06-21T10:08:09.415Z,40.04
2018-06-21T10:39:17.162Z,42.24
2018-06-21T10:41:53.622Z,42.18
2018-06-21T10:44:49.755Z,42.63
2018-06-21T12:41:44.018Z,52.34
2018-06-21T12:44:18.531Z,54.44
2018-06-21T12:49:46.716Z,56.91
2018-06-21T13:38:51.396Z,65.95
2018-06-21T13:41:23.701Z,64.77
2018-06-21T13:43:54.137Z,64.50
2018-06-21T13:46:26.783Z,63.28
2018-06-21T14:46:45.466Z,40.64
2018-06-21T14:53:15.909Z,37.08
2018-06-21T15:09:59.011Z,35.01
2018-06-21T15:20:40.303Z,34.69
2018-06-21T15:35:55.546Z,36.75
2018-06-21T15:40:51.687Z,37.39
2018-06-21T15:43:21.301Z,33.28
2018-06-21T15:45:56.780Z,32.64
2018-06-21T15:49:28.703Z,32.64
2018-06-21T15:52:23.278Z,34.18
2018-06-21T16:06:19.863Z,36.70
2018-06-21T16:37:43.171Z,32.09
2018-06-21T16:40:14.765Z,32.46
2018-06-21T16:42:44.374Z,33.25
2018-06-21T16:45:14.100Z,32.52
2018-06-21T16:47:47.049Z,32.51
2018-06-21T16:50:22.316Z,31.75
2018-06-21T16:59:41.593Z,31.17
2018-06-21T17:02:24.849Z,28.82
2018-06-21T17:04:59.105Z,27.61
2018-06-21T17:07:29.635Z,28.18
2018-06-21T17:10:07.743Z,29.15
2018-06-21T17:22:51.898Z,29.18
2018-06-21T17:25:24.293Z,29.56
2018-06-21T17:28:01.070Z,28.76
2018-06-21T17:41:39.546Z,29.35
2018-06-21T17:44:10.102Z,29.59
2018-06-21T17:46:39.757Z,29.98
2018-06-21T17:49:25.666Z,30.05
2018-06-21T17:52:01.159Z,29.70
2018-06-21T18:00:43.477Z,30.85
2018-06-21T18:03:15.587Z,30.53
2018-06-21T18:12:32.336Z,31.09
2018-06-21T18:15:09.752Z,34.04
2018-06-21T18:41:49.557Z,37.06
2018-06-21T18:44:48.943Z,37.84
2018-06-21T18:47:20.270Z,37.91
2018-06-21T18:49:49.475Z,39.01
2018-06-21T18:52:18.638Z,38.74
2018-06-21T18:54:47.791Z,38.71
2018-06-21T18:57:16.962Z,38.30
2018-06-21T18:59:46.135Z,39.18
2018-06-21T19:02:15.401Z,39.97
2018-06-21T19:04:44.569Z,39.80
2018-06-21T19:07:19.063Z,39.03
2018-06-21T19:09:53.484Z,39.94
2018-06-21T19:12:22.652Z,40.46
2018-06-21T19:14:51.821Z,40.45
2018-06-21T19:17:20.996Z,40.53
2018-06-21T19:19:50.168Z,40.68
2018-06-21T19:22:19.342Z,41.19
2018-06-21T19:24:48.454Z,41.19
2018-06-21T19:27:18.712Z,42.93
2018-06-21T19:29:48.188Z,42.52
2018-06-21T19:32:17.480Z,42.44
2018-06-21T19:34:46.606Z,43.20
2018-06-21T19:37:15.884Z,42.24
2018-06-21T19:39:45.090Z,42.44
2018-06-21T19:42:14.296Z,42.00
2018-06-21T19:44:43.453Z,42.78
2018-06-21T19:47:12.589Z,43.42
2018-06-21T19:49:41.828Z,44.18
2018-06-21T19:52:10.952Z,42.93
2018-06-21T19:54:40.141Z,44.05
2018-06-21T19:57:09.329Z,44.23
2018-06-21T19:59:38.471Z,43.54
2018-06-21T20:02:07.731Z,44.40
2018-06-21T20:04:36.927Z,43.51
2018-06-21T20:07:06.147Z,43.23
2018-06-21T20:09:35.314Z,44.10
2018-06-21T20:12:04.459Z,44.21
2018-06-21T20:14:33.671Z,43.38
2018-06-21T20:17:02.870Z,44.17
2018-06-21T20:19:36.096Z,44.46
2018-06-21T20:22:05.243Z,44.58
2018-06-21T20:24:34.404Z,45.12
2018-06-21T20:27:03.551Z,44.99
2018-06-21T20:29:32.716Z,45.29
2018-06-21T20:32:01.854Z,45.22
2018-06-21T20:34:31.041Z,46.30
2018-06-21T20:37:00.312Z,45.99
2018-06-21T20:39:29.464Z,46.15
2018-06-21T20:41:58.616Z,45.55
2018-06-21T20:44:27.803Z,46.16
2018-06-21T20:46:56.964Z,46.45
2018-06-21T20:49:26.240Z,46.43
2018-06-21T20:51:55.409Z,46.65
2018-06-21T20:54:24.546Z,46.67
2018-06-21T20:56:53.753Z,47.02
2018-06-21T20:59:22.895Z,47.22
2018-06-21T21:01:52.072Z,47.59
2018-06-21T21:04:22.732Z,47.52
2018-06-21T21:06:51.908Z,47.52
2018-06-21T21:09:21.118Z,47.91
2018-06-21T21:11:50.361Z,47.93
2018-06-21T21:14:19.531Z,47.65
2018-06-21T21:16:48.723Z,48.30
2018-06-21T21:19:17.932Z,48.82
2018-06-21T21:21:47.140Z,48.69
2018-06-21T21:24:16.363Z,48.77
2018-06-21T21:26:45.664Z,48.65
2018-06-21T21:29:14.835Z,49.55
2018-06-21T21:31:44.223Z,49.23
2018-06-21T21:34:13.288Z,49.23
2018-06-21T21:36:42.496Z,49.14
2018-06-21T21:39:11.692Z,48.85
2018-06-21T21:41:40.860Z,49.37
2018-06-21T21:44:10.035Z,49.75
2018-06-21T21:46:39.195Z,49.79
2018-06-21T21:49:08.343Z,49.90
2018-06-21T21:51:37.491Z,50.01
2018-06-21T21:54:06.652Z,50.72
2018-06-21T21:56:35.803Z,51.63
2018-06-21T21:59:04.974Z,51.34
2018-06-21T22:01:34.189Z,51.64
2018-06-21T22:04:03.349Z,52.11
2018-06-21T22:06:32.556Z,51.53
2018-06-21T22:09:01.775Z,51.40
2018-06-21T22:11:30.964Z,51.56
2018-06-21T22:14:05.762Z,51.68
2018-06-21T22:16:36.354Z,51.69
2018-06-21T22:19:05.528Z,51.38
2018-06-21T22:21:34.773Z,52.22
2018-06-21T22:24:03.959Z,52.54
2018-06-21T22:26:33.120Z,53.15
2018-06-21T22:29:02.262Z,53.19
2018-06-21T22:31:31.410Z,53.52
2018-06-21T22:34:00.637Z,53.00
2018-06-21T22:36:29.801Z,53.11
2018-06-21T22:38:58.957Z,53.16
2018-06-21T22:41:28.118Z,53.55
2018-06-21T22:43:57.294Z,53.56
2018-06-21T22:46:26.459Z,53.54
2018-06-21T22:48:55.707Z,53.54
2018-06-21T22:51:24.887Z,53.81
2018-06-21T22:53:54.055Z,54.43
2018-06-21T22:56:23.224Z,55.07
2018-06-21T22:58:52.389Z,55.08
2018-06-21T23:01:21.561Z,55.32
2018-06-21T23:03:50.770Z,55.12
2018-06-21T23:06:19.927Z,55.84
2018-06-21T23:08:49.080Z,56.49
2018-06-21T23:11:18.277Z,56.25
2018-06-21T23:13:47.456Z,56.13
2018-06-21T23:16:16.621Z,56.16
2018-06-21T23:19:02.746Z,55.70
2018-06-21T23:21:31.915Z,56.47
2018-06-21T23:24:01.074Z,57.18
2018-06-21T23:26:30.244Z,56.90
2018-06-21T23:28:59.395Z,56.94
2018-06-21T23:31:28.564Z,56.53
2018-06-21T23:33:57.718Z,57.13
2018-06-21T23:36:26.877Z,57.29
2018-06-21T23:38:56.042Z,57.25
2018-06-21T23:41:25.209Z,57.70
2018-06-21T23:43:54.372Z,57.88
2018-06-21T23:46:23.576Z,58.27
2018-06-21T23:48:52.727Z,58.65
2018-06-21T23:51:21.900Z,58.77
2018-06-21T23:53:51.066Z,58.85
2018-06-21T23:56:20.225Z,59.31
2018-06-21T23:58:49.397Z,59.08
